sensor_id;sensor_type;location;lat;lon;timestamp;temperature;humidity
27226;DHT22;14732;51.074;3.788;2023-12-14T00:01:51;10.50;99.90
27226;DHT22;14732;51.074;3.788;2023-12-14T00:04:17;10.70;99.90
27226;DHT22;14732;51.074;3.788;2023-12-14T00:06:42;10.80;99.90
27226;DHT22;14732;51.074;3.788;2023-12-14T00:09:08;10.60;99.90
27226;DHT22;14732;51.074;3.788;2023-12-14T00:11:40;10.40;99.90
27226;DHT22;14732;51.074;3.788;2023-12-14T00:14:06;10.30;99.90
27226;DHT22;14732;51.074;3.788;2023-12-14T00:16:32;10.50;99.90
27226;DHT22;14732;51.074;3.788;2023-12-14T00:18:58;10.50;99.90
27226;DHT22;14732;51.074;3.788;2023-12-14T00:21:23;10.50;99.90
27226;DHT22;14732;51.074;3.788;2023-12-14T00:23:49;10.50;99.90
27226;DHT22;14732;51.074;3.788;2023-12-14T00:26:14;10.50;99.90
27226;DHT22;14732;51.074;3.788;2023-12-14T00:28:40;10.50;99.90
27226;DHT22;14732;51.074;3.788;2023-12-14T00:31:06;10.30;99.90
27226;DHT22;14732;51.074;3.788;2023-12-14T00:33:31;10.00;99.90
27226;DHT22;14732;51.074;3.788;2023-12-14T00:35:57;10.00;99.90
27226;DHT22;14732;51.074;3.788;2023-12-14T00:38:23;10.00;99.90
27226;DHT22;14732;51.074;3.788;2023-12-14T00:40:49;9.90;99.90
27226;DHT22;14732;51.074;3.788;2023-12-14T00:43:14;9.90;99.90
27226;DHT22;14732;51.074;3.788;2023-12-14T00:45:40;9.90;99.90
27226;DHT22;14732;51.074;3.788;2023-12-14T00:48:08;9.80;99.90
27226;DHT22;14732;51.074;3.788;2023-12-14T00:50:34;9.60;99.90
27226;DHT22;14732;51.074;3.788;2023-12-14T00:53:00;9.50;99.90
27226;DHT22;14732;51.074;3.788;2023-12-14T00:55:26;9.50;99.90
27226;DHT22;14732;51.074;3.788;2023-12-14T00:57:51;9.20;99.90
27226;DHT22;14732;51.074;3.788;2023-12-14T01:00:18;9.10;99.90
27226;DHT22;14732;51.074;3.788;2023-12-14T01:02:43;9.10;99.90
27226;DHT22;14732;51.074;3.788;2023-12-14T01:05:09;9.20;99.90
27226;DHT22;14732;51.074;3.788;2023-12-14T01:07:35;9.20;99.90
27226;DHT22;14732;51.074;3.788;2023-12-14T01:10:01;9.20;99.90
27226;DHT22;14732;51.074;3.788;2023-12-14T01:12:27;9.40;99.90
27226;DHT22;14732;51.074;3.788;2023-12-14T01:14:52;9.20;99.90
27226;DHT22;14732;51.074;3.788;2023-12-14T01:17:18;9.00;99.90
27226;DHT22;14732;51.074;3.788;2023-12-14T01:19:44;9.10;99.90
27226;DHT22;14732;51.074;3.788;2023-12-14T01:22:10;9.10;99.90
27226;DHT22;14732;51.074;3.788;2023-12-14T01:24:36;9.10;99.90
27226;DHT22;14732;51.074;3.788;2023-12-14T01:27:01;9.00;99.90
27226;DHT22;14732;51.074;3.788;2023-12-14T01:29:27;9.00;99.90
27226;DHT22;14732;51.074;3.788;2023-12-14T01:31:53;9.00;99.90
27226;DHT22;14732;51.074;3.788;2023-12-14T01:34:18;9.10;99.90
27226;DHT22;14732;51.074;3.788;2023-12-14T01:36:44;9.10;99.90
27226;DHT22;14732;51.074;3.788;2023-12-14T01:39:10;8.90;99.90
27226;DHT22;14732;51.074;3.788;2023-12-14T01:41:36;8.70;99.90
27226;DHT22;14732;51.074;3.788;2023-12-14T01:44:01;8.80;99.90
27226;DHT22;14732;51.074;3.788;2023-12-14T01:46:27;8.70;99.90
27226;DHT22;14732;51.074;3.788;2023-12-14T01:48:52;8.70;99.90
27226;DHT22;14732;51.074;3.788;2023-12-14T01:51:18;8.60;99.90
27226;DHT22;14732;51.074;3.788;2023-12-14T01:53:44;8.40;99.90
27226;DHT22;14732;51.074;3.788;2023-12-14T01:56:10;8.40;99.90
27226;DHT22;14732;51.074;3.788;2023-12-14T01:58:36;8.40;99.90
27226;DHT22;14732;51.074;3.788;2023-12-14T02:03:33;8.30;99.90
27226;DHT22;14732;51.074;3.788;2023-12-14T02:05:59;8.30;99.90
27226;DHT22;14732;51.074;3.788;2023-12-14T02:08:27;8.30;99.90
27226;DHT22;14732;51.074;3.788;2023-12-14T02:10:52;8.20;99.90
27226;DHT22;14732;51.074;3.788;2023-12-14T02:13:18;8.30;99.90
27226;DHT22;14732;51.074;3.788;2023-12-14T02:15:44;8.30;99.90
27226;DHT22;14732;51.074;3.788;2023-12-14T02:18:09;8.20;99.90
27226;DHT22;14732;51.074;3.788;2023-12-14T02:20:35;8.20;99.90
27226;DHT22;14732;51.074;3.788;2023-12-14T02:23:00;8.20;99.90
27226;DHT22;14732;51.074;3.788;2023-12-14T02:25:27;8.00;99.90
27226;DHT22;14732;51.074;3.788;2023-12-14T02:27:53;7.90;99.90
27226;DHT22;14732;51.074;3.788;2023-12-14T02:30:18;7.90;99.90
27226;DHT22;14732;51.074;3.788;2023-12-14T02:32:44;7.90;99.90
27226;DHT22;14732;51.074;3.788;2023-12-14T02:35:10;7.80;99.90
27226;DHT22;14732;51.074;3.788;2023-12-14T02:37:36;7.80;99.90
27226;DHT22;14732;51.074;3.788;2023-12-14T02:40:08;7.90;99.90
27226;DHT22;14732;51.074;3.788;2023-12-14T02:42:34;7.80;99.90
27226;DHT22;14732;51.074;3.788;2023-12-14T02:45:00;7.80;99.90
27226;DHT22;14732;51.074;3.788;2023-12-14T02:47:28;7.70;99.90
27226;DHT22;14732;51.074;3.788;2023-12-14T02:49:54;7.70;99.90
27226;DHT22;14732;51.074;3.788;2023-12-14T02:52:20;7.70;99.90
27226;DHT22;14732;51.074;3.788;2023-12-14T02:54:45;7.80;99.90
27226;DHT22;14732;51.074;3.788;2023-12-14T02:57:11;8.00;99.90
27226;DHT22;14732;51.074;3.788;2023-12-14T02:59:37;8.10;99.90
27226;DHT22;14732;51.074;3.788;2023-12-14T03:02:03;8.10;99.90
27226;DHT22;14732;51.074;3.788;2023-12-14T03:04:28;7.90;99.90
27226;DHT22;14732;51.074;3.788;2023-12-14T03:06:54;7.80;99.90
27226;DHT22;14732;51.074;3.788;2023-12-14T03:09:21;7.80;99.90
27226;DHT22;14732;51.074;3.788;2023-12-14T03:11:48;7.90;99.90
27226;DHT22;14732;51.074;3.788;2023-12-14T03:14:13;7.90;99.90
27226;DHT22;14732;51.074;3.788;2023-12-14T03:16:39;7.90;99.90
27226;DHT22;14732;51.074;3.788;2023-12-14T03:19:05;8.00;99.90
27226;DHT22;14732;51.074;3.788;2023-12-14T03:21:31;7.90;99.90
27226;DHT22;14732;51.074;3.788;2023-12-14T03:23:56;8.00;99.90
27226;DHT22;14732;51.074;3.788;2023-12-14T03:26:22;7.90;99.90
27226;DHT22;14732;51.074;3.788;2023-12-14T03:28:48;7.90;99.90
27226;DHT22;14732;51.074;3.788;2023-12-14T03:31:13;7.80;99.90
27226;DHT22;14732;51.074;3.788;2023-12-14T03:33:39;7.90;99.90
27226;DHT22;14732;51.074;3.788;2023-12-14T03:36:05;8.00;99.90
27226;DHT22;14732;51.074;3.788;2023-12-14T03:38:32;8.10;99.90
27226;DHT22;14732;51.074;3.788;2023-12-14T03:40:58;8.10;99.90
27226;DHT22;14732;51.074;3.788;2023-12-14T03:43:24;8.10;99.90
27226;DHT22;14732;51.074;3.788;2023-12-14T03:45:49;8.20;99.90
27226;DHT22;14732;51.074;3.788;2023-12-14T03:48:15;8.40;99.90
27226;DHT22;14732;51.074;3.788;2023-12-14T03:50:41;8.50;99.90
27226;DHT22;14732;51.074;3.788;2023-12-14T03:53:07;8.40;99.90
27226;DHT22;14732;51.074;3.788;2023-12-14T03:55:33;8.60;99.90
27226;DHT22;14732;51.074;3.788;2023-12-14T03:57:59;8.60;99.90
27226;DHT22;14732;51.074;3.788;2023-12-14T04:00:24;8.30;99.90
27226;DHT22;14732;51.074;3.788;2023-12-14T04:02:50;8.30;99.90
27226;DHT22;14732;51.074;3.788;2023-12-14T04:05:16;8.20;99.90
27226;DHT22;14732;51.074;3.788;2023-12-14T04:07:41;8.20;99.90
27226;DHT22;14732;51.074;3.788;2023-12-14T04:10:11;8.20;99.90
27226;DHT22;14732;51.074;3.788;2023-12-14T04:12:37;8.30;99.90
27226;DHT22;14732;51.074;3.788;2023-12-14T04:15:03;8.20;99.90
27226;DHT22;14732;51.074;3.788;2023-12-14T04:17:30;8.20;99.90
27226;DHT22;14732;51.074;3.788;2023-12-14T04:19:55;8.10;99.90
27226;DHT22;14732;51.074;3.788;2023-12-14T04:22:21;8.00;99.90
27226;DHT22;14732;51.074;3.788;2023-12-14T04:24:47;7.90;99.90
27226;DHT22;14732;51.074;3.788;2023-12-14T04:27:12;7.90;99.90
27226;DHT22;14732;51.074;3.788;2023-12-14T04:29:38;7.90;99.90
27226;DHT22;14732;51.074;3.788;2023-12-14T04:32:04;7.80;99.90
27226;DHT22;14732;51.074;3.788;2023-12-14T04:34:30;7.80;99.90
27226;DHT22;14732;51.074;3.788;2023-12-14T04:36:56;7.90;99.90
27226;DHT22;14732;51.074;3.788;2023-12-14T04:39:23;7.90;99.90
27226;DHT22;14732;51.074;3.788;2023-12-14T04:41:50;8.10;99.90
27226;DHT22;14732;51.074;3.788;2023-12-14T04:44:16;8.00;99.90
27226;DHT22;14732;51.074;3.788;2023-12-14T04:46:42;7.90;99.90
27226;DHT22;14732;51.074;3.788;2023-12-14T04:49:07;8.00;99.90
27226;DHT22;14732;51.074;3.788;2023-12-14T04:51:33;8.00;99.90
27226;DHT22;14732;51.074;3.788;2023-12-14T04:53:59;8.30;99.90
27226;DHT22;14732;51.074;3.788;2023-12-14T04:56:24;8.20;99.90
27226;DHT22;14732;51.074;3.788;2023-12-14T04:58:50;8.30;99.90
27226;DHT22;14732;51.074;3.788;2023-12-14T05:01:16;8.20;99.90
27226;DHT22;14732;51.074;3.788;2023-12-14T05:03:42;8.00;99.90
27226;DHT22;14732;51.074;3.788;2023-12-14T05:06:07;8.20;99.90
27226;DHT22;14732;51.074;3.788;2023-12-14T05:08:33;8.20;99.90
27226;DHT22;14732;51.074;3.788;2023-12-14T05:10:59;8.40;99.90
27226;DHT22;14732;51.074;3.788;2023-12-14T05:13:25;8.30;99.90
27226;DHT22;14732;51.074;3.788;2023-12-14T05:15:51;8.40;99.90
27226;DHT22;14732;51.074;3.788;2023-12-14T05:18:18;8.60;99.90
27226;DHT22;14732;51.074;3.788;2023-12-14T05:20:43;8.60;99.90
27226;DHT22;14732;51.074;3.788;2023-12-14T05:23:11;8.70;99.90
27226;DHT22;14732;51.074;3.788;2023-12-14T05:25:37;8.80;99.90
27226;DHT22;14732;51.074;3.788;2023-12-14T05:28:02;8.70;99.90
27226;DHT22;14732;51.074;3.788;2023-12-14T05:30:29;8.60;99.90
27226;DHT22;14732;51.074;3.788;2023-12-14T05:32:54;8.80;99.90
27226;DHT22;14732;51.074;3.788;2023-12-14T05:35:20;8.90;99.90
27226;DHT22;14732;51.074;3.788;2023-12-14T05:37:46;8.90;99.90
27226;DHT22;14732;51.074;3.788;2023-12-14T05:40:11;9.00;99.90
27226;DHT22;14732;51.074;3.788;2023-12-14T05:42:37;9.10;99.90
27226;DHT22;14732;51.074;3.788;2023-12-14T05:45:07;9.10;99.90
27226;DHT22;14732;51.074;3.788;2023-12-14T05:47:32;9.20;99.90
27226;DHT22;14732;51.074;3.788;2023-12-14T05:50:03;9.20;99.90
27226;DHT22;14732;51.074;3.788;2023-12-14T05:52:29;9.10;99.90
27226;DHT22;14732;51.074;3.788;2023-12-14T05:54:55;9.10;99.90
27226;DHT22;14732;51.074;3.788;2023-12-14T05:57:20;9.10;99.90
27226;DHT22;14732;51.074;3.788;2023-12-14T05:59:46;8.90;99.90
27226;DHT22;14732;51.074;3.788;2023-12-14T06:02:12;9.00;99.90
27226;DHT22;14732;51.074;3.788;2023-12-14T06:04:37;9.10;99.90
27226;DHT22;14732;51.074;3.788;2023-12-14T06:07:03;9.00;99.90
27226;DHT22;14732;51.074;3.788;2023-12-14T06:09:29;8.60;99.90
27226;DHT22;14732;51.074;3.788;2023-12-14T06:12:03;8.50;99.90
27226;DHT22;14732;51.074;3.788;2023-12-14T06:14:28;8.40;99.90
27226;DHT22;14732;51.074;3.788;2023-12-14T06:16:54;8.60;99.90
27226;DHT22;14732;51.074;3.788;2023-12-14T06:19:20;8.50;99.90
27226;DHT22;14732;51.074;3.788;2023-12-14T06:21:45;8.30;99.90
27226;DHT22;14732;51.074;3.788;2023-12-14T06:24:11;8.50;99.90
27226;DHT22;14732;51.074;3.788;2023-12-14T06:26:46;8.70;99.90
27226;DHT22;14732;51.074;3.788;2023-12-14T06:29:12;8.90;99.90
27226;DHT22;14732;51.074;3.788;2023-12-14T06:31:38;8.90;99.90
27226;DHT22;14732;51.074;3.788;2023-12-14T06:34:05;8.90;99.90
27226;DHT22;14732;51.074;3.788;2023-12-14T06:36:31;8.90;99.90
27226;DHT22;14732;51.074;3.788;2023-12-14T06:39:01;8.90;99.90
27226;DHT22;14732;51.074;3.788;2023-12-14T06:41:28;8.90;99.90
27226;DHT22;14732;51.074;3.788;2023-12-14T06:43:54;9.10;99.90
27226;DHT22;14732;51.074;3.788;2023-12-14T06:46:21;9.20;99.90
27226;DHT22;14732;51.074;3.788;2023-12-14T06:48:47;9.30;99.90
27226;DHT22;14732;51.074;3.788;2023-12-14T06:51:13;9.30;99.90
27226;DHT22;14732;51.074;3.788;2023-12-14T06:53:42;9.20;99.90
27226;DHT22;14732;51.074;3.788;2023-12-14T06:56:09;8.90;99.90
27226;DHT22;14732;51.074;3.788;2023-12-14T06:58:40;8.90;99.90
27226;DHT22;14732;51.074;3.788;2023-12-14T07:01:06;8.90;99.90
27226;DHT22;14732;51.074;3.788;2023-12-14T07:03:32;9.10;99.90
27226;DHT22;14732;51.074;3.788;2023-12-14T07:05:58;9.10;99.90
27226;DHT22;14732;51.074;3.788;2023-12-14T07:08:24;9.00;99.90
27226;DHT22;14732;51.074;3.788;2023-12-14T07:10:50;8.80;99.90
27226;DHT22;14732;51.074;3.788;2023-12-14T07:13:15;8.90;99.90
27226;DHT22;14732;51.074;3.788;2023-12-14T07:15:41;9.00;99.90
27226;DHT22;14732;51.074;3.788;2023-12-14T07:18:07;9.20;99.90
27226;DHT22;14732;51.074;3.788;2023-12-14T07:20:33;9.00;99.90
27226;DHT22;14732;51.074;3.788;2023-12-14T07:22:58;8.80;99.90
27226;DHT22;14732;51.074;3.788;2023-12-14T07:25:24;9.00;99.90
27226;DHT22;14732;51.074;3.788;2023-12-14T07:27:49;9.00;99.90
27226;DHT22;14732;51.074;3.788;2023-12-14T07:44:51;8.90;99.90
27226;DHT22;14732;51.074;3.788;2023-12-14T07:47:16;9.40;99.90
27226;DHT22;14732;51.074;3.788;2023-12-14T07:49:42;9.20;99.90
27226;DHT22;14732;51.074;3.788;2023-12-14T07:52:08;9.20;99.90
27226;DHT22;14732;51.074;3.788;2023-12-14T07:54:35;9.20;99.90
27226;DHT22;14732;51.074;3.788;2023-12-14T07:57:01;9.20;99.90
27226;DHT22;14732;51.074;3.788;2023-12-14T07:59:26;9.20;99.90
27226;DHT22;14732;51.074;3.788;2023-12-14T08:01:52;9.30;99.90
27226;DHT22;14732;51.074;3.788;2023-12-14T08:04:17;9.50;99.90
27226;DHT22;14732;51.074;3.788;2023-12-14T08:06:43;9.60;99.90
27226;DHT22;14732;51.074;3.788;2023-12-14T08:09:09;9.60;99.90
27226;DHT22;14732;51.074;3.788;2023-12-14T08:11:35;9.50;99.90
27226;DHT22;14732;51.074;3.788;2023-12-14T08:14:01;9.30;99.90
27226;DHT22;14732;51.074;3.788;2023-12-14T08:16:28;9.50;99.90
27226;DHT22;14732;51.074;3.788;2023-12-14T08:18:53;9.50;99.90
27226;DHT22;14732;51.074;3.788;2023-12-14T08:21:19;9.60;99.90
27226;DHT22;14732;51.074;3.788;2023-12-14T08:23:45;9.70;99.90
27226;DHT22;14732;51.074;3.788;2023-12-14T08:26:10;9.80;99.90
27226;DHT22;14732;51.074;3.788;2023-12-14T08:28:39;9.80;99.90
27226;DHT22;14732;51.074;3.788;2023-12-14T08:31:04;9.90;99.90
27226;DHT22;14732;51.074;3.788;2023-12-14T08:33:30;9.90;99.90
27226;DHT22;14732;51.074;3.788;2023-12-14T08:35:56;9.90;99.90
27226;DHT22;14732;51.074;3.788;2023-12-14T08:38:22;10.00;99.90
27226;DHT22;14732;51.074;3.788;2023-12-14T08:40:48;10.00;99.90
27226;DHT22;14732;51.074;3.788;2023-12-14T08:43:13;10.10;99.90
27226;DHT22;14732;51.074;3.788;2023-12-14T08:45:39;10.20;99.90
27226;DHT22;14732;51.074;3.788;2023-12-14T08:48:05;10.20;99.90
27226;DHT22;14732;51.074;3.788;2023-12-14T08:50:31;10.30;99.90
27226;DHT22;14732;51.074;3.788;2023-12-14T08:52:57;10.40;99.90
27226;DHT22;14732;51.074;3.788;2023-12-14T08:55:26;10.40;99.90
27226;DHT22;14732;51.074;3.788;2023-12-14T08:57:52;10.50;99.90
27226;DHT22;14732;51.074;3.788;2023-12-14T09:00:18;10.50;99.90
27226;DHT22;14732;51.074;3.788;2023-12-14T09:02:45;10.40;99.90
27226;DHT22;14732;51.074;3.788;2023-12-14T09:05:14;10.40;99.90
27226;DHT22;14732;51.074;3.788;2023-12-14T09:07:41;10.30;99.90
27226;DHT22;14732;51.074;3.788;2023-12-14T09:10:07;10.20;99.90
27226;DHT22;14732;51.074;3.788;2023-12-14T09:12:34;10.20;99.90
27226;DHT22;14732;51.074;3.788;2023-12-14T09:15:00;10.30;99.90
27226;DHT22;14732;51.074;3.788;2023-12-14T09:17:26;10.40;99.90
27226;DHT22;14732;51.074;3.788;2023-12-14T09:19:57;10.40;99.90
27226;DHT22;14732;51.074;3.788;2023-12-14T09:22:23;10.40;99.90
27226;DHT22;14732;51.074;3.788;2023-12-14T09:24:48;10.40;99.90
27226;DHT22;14732;51.074;3.788;2023-12-14T09:27:14;10.40;99.90
27226;DHT22;14732;51.074;3.788;2023-12-14T09:29:40;10.40;99.90
27226;DHT22;14732;51.074;3.788;2023-12-14T09:32:08;10.40;99.90
27226;DHT22;14732;51.074;3.788;2023-12-14T09:34:34;10.60;99.90
27226;DHT22;14732;51.074;3.788;2023-12-14T09:36:59;10.60;99.90
27226;DHT22;14732;51.074;3.788;2023-12-14T09:39:25;10.70;99.90
27226;DHT22;14732;51.074;3.788;2023-12-14T09:41:50;10.80;99.90
27226;DHT22;14732;51.074;3.788;2023-12-14T09:44:16;10.90;99.90
27226;DHT22;14732;51.074;3.788;2023-12-14T09:46:43;10.80;99.90
27226;DHT22;14732;51.074;3.788;2023-12-14T09:49:15;10.80;99.90
27226;DHT22;14732;51.074;3.788;2023-12-14T09:51:41;10.90;99.90
27226;DHT22;14732;51.074;3.788;2023-12-14T09:54:07;10.80;99.90
27226;DHT22;14732;51.074;3.788;2023-12-14T09:56:32;10.70;99.90
27226;DHT22;14732;51.074;3.788;2023-12-14T09:58:58;10.60;99.90
27226;DHT22;14732;51.074;3.788;2023-12-14T10:01:27;10.70;99.90
27226;DHT22;14732;51.074;3.788;2023-12-14T10:04:10;10.60;99.90
27226;DHT22;14732;51.074;3.788;2023-12-14T10:06:37;10.50;99.90
27226;DHT22;14732;51.074;3.788;2023-12-14T10:09:03;10.20;99.90
27226;DHT22;14732;51.074;3.788;2023-12-14T10:11:30;10.20;99.90
27226;DHT22;14732;51.074;3.788;2023-12-14T10:13:56;10.10;99.90
27226;DHT22;14732;51.074;3.788;2023-12-14T10:18:56;9.80;99.90
27226;DHT22;14732;51.074;3.788;2023-12-14T10:21:23;9.90;99.90
27226;DHT22;14732;51.074;3.788;2023-12-14T10:23:49;9.80;99.90
27226;DHT22;14732;51.074;3.788;2023-12-14T10:26:15;10.00;99.90
27226;DHT22;14732;51.074;3.788;2023-12-14T10:28:41;10.00;99.90
27226;DHT22;14732;51.074;3.788;2023-12-14T10:31:07;10.10;99.90
27226;DHT22;14732;51.074;3.788;2023-12-14T10:33:34;10.00;99.90
27226;DHT22;14732;51.074;3.788;2023-12-14T10:36:00;9.90;99.90
27226;DHT22;14732;51.074;3.788;2023-12-14T10:38:28;10.00;99.90
27226;DHT22;14732;51.074;3.788;2023-12-14T10:40:55;10.10;99.90
27226;DHT22;14732;51.074;3.788;2023-12-14T10:43:22;10.00;99.90
27226;DHT22;14732;51.074;3.788;2023-12-14T10:45:48;10.20;99.90
27226;DHT22;14732;51.074;3.788;2023-12-14T10:48:14;10.20;99.90
27226;DHT22;14732;51.074;3.788;2023-12-14T10:50:42;10.50;99.90
27226;DHT22;14732;51.074;3.788;2023-12-14T10:53:08;10.50;99.90
27226;DHT22;14732;51.074;3.788;2023-12-14T10:55:43;10.40;99.90
27226;DHT22;14732;51.074;3.788;2023-12-14T10:58:10;10.30;99.90
27226;DHT22;14732;51.074;3.788;2023-12-14T11:00:37;10.30;99.90
27226;DHT22;14732;51.074;3.788;2023-12-14T11:03:04;10.40;99.90
27226;DHT22;14732;51.074;3.788;2023-12-14T11:05:32;10.50;99.90
27226;DHT22;14732;51.074;3.788;2023-12-14T11:08:03;10.60;99.90
27226;DHT22;14732;51.074;3.788;2023-12-14T11:10:42;10.60;99.90
27226;DHT22;14732;51.074;3.788;2023-12-14T11:13:13;10.70;99.90
27226;DHT22;14732;51.074;3.788;2023-12-14T11:15:57;10.80;99.90
27226;DHT22;14732;51.074;3.788;2023-12-14T11:18:26;10.90;99.90
27226;DHT22;14732;51.074;3.788;2023-12-14T11:20:57;11.00;99.90
27226;DHT22;14732;51.074;3.788;2023-12-14T11:25:52;11.00;99.90
27226;DHT22;14732;51.074;3.788;2023-12-14T11:28:19;11.20;99.90
27226;DHT22;14732;51.074;3.788;2023-12-14T11:30:46;11.00;99.90
27226;DHT22;14732;51.074;3.788;2023-12-14T11:33:13;10.90;99.90
27226;DHT22;14732;51.074;3.788;2023-12-14T11:35:39;11.00;99.90
27226;DHT22;14732;51.074;3.788;2023-12-14T11:38:05;11.20;99.90
27226;DHT22;14732;51.074;3.788;2023-12-14T11:40:38;11.20;99.90
27226;DHT22;14732;51.074;3.788;2023-12-14T11:43:04;11.20;99.90
27226;DHT22;14732;51.074;3.788;2023-12-14T11:45:40;11.00;99.90
27226;DHT22;14732;51.074;3.788;2023-12-14T11:48:10;11.10;99.90
27226;DHT22;14732;51.074;3.788;2023-12-14T11:50:40;10.80;99.90
27226;DHT22;14732;51.074;3.788;2023-12-14T11:53:07;10.70;99.90
27226;DHT22;14732;51.074;3.788;2023-12-14T11:55:35;10.70;99.90
27226;DHT22;14732;51.074;3.788;2023-12-14T11:58:02;10.70;99.90
27226;DHT22;14732;51.074;3.788;2023-12-14T12:00:29;10.70;99.90
27226;DHT22;14732;51.074;3.788;2023-12-14T12:05:38;10.80;99.90
27226;DHT22;14732;51.074;3.788;2023-12-14T12:08:05;10.70;99.90
27226;DHT22;14732;51.074;3.788;2023-12-14T12:10:31;10.50;99.90
27226;DHT22;14732;51.074;3.788;2023-12-14T12:13:04;10.40;99.90
27226;DHT22;14732;51.074;3.788;2023-12-14T12:15:32;10.30;99.90
27226;DHT22;14732;51.074;3.788;2023-12-14T12:17:58;10.40;99.90
27226;DHT22;14732;51.074;3.788;2023-12-14T12:20:24;10.70;99.90
27226;DHT22;14732;51.074;3.788;2023-12-14T12:22:51;10.60;99.90
27226;DHT22;14732;51.074;3.788;2023-12-14T12:25:17;10.50;99.90
27226;DHT22;14732;51.074;3.788;2023-12-14T12:27:42;10.70;99.90
27226;DHT22;14732;51.074;3.788;2023-12-14T12:30:10;10.70;99.90
27226;DHT22;14732;51.074;3.788;2023-12-14T12:32:35;10.90;99.90
27226;DHT22;14732;51.074;3.788;2023-12-14T12:35:01;11.00;99.90
27226;DHT22;14732;51.074;3.788;2023-12-14T12:37:27;10.80;99.90
27226;DHT22;14732;51.074;3.788;2023-12-14T12:39:52;10.90;99.90
27226;DHT22;14732;51.074;3.788;2023-12-14T12:42:18;10.80;99.90
27226;DHT22;14732;51.074;3.788;2023-12-14T12:44:44;10.80;99.90
27226;DHT22;14732;51.074;3.788;2023-12-14T12:47:09;10.80;99.90
27226;DHT22;14732;51.074;3.788;2023-12-14T12:49:35;10.80;99.90
27226;DHT22;14732;51.074;3.788;2023-12-14T12:52:01;10.80;99.90
27226;DHT22;14732;51.074;3.788;2023-12-14T12:54:26;10.70;99.90
27226;DHT22;14732;51.074;3.788;2023-12-14T12:56:52;10.70;99.90
27226;DHT22;14732;51.074;3.788;2023-12-14T12:59:18;10.80;99.90
27226;DHT22;14732;51.074;3.788;2023-12-14T13:01:43;10.80;99.90
27226;DHT22;14732;51.074;3.788;2023-12-14T13:04:23;10.80;99.90
27226;DHT22;14732;51.074;3.788;2023-12-14T13:06:49;10.80;99.90
27226;DHT22;14732;51.074;3.788;2023-12-14T13:09:18;10.80;99.90
27226;DHT22;14732;51.074;3.788;2023-12-14T13:11:48;10.80;99.90
27226;DHT22;14732;51.074;3.788;2023-12-14T13:14:14;10.60;99.90
27226;DHT22;14732;51.074;3.788;2023-12-14T13:16:40;10.30;99.90
27226;DHT22;14732;51.074;3.788;2023-12-14T13:19:06;10.30;99.90
27226;DHT22;14732;51.074;3.788;2023-12-14T13:21:32;10.40;99.90
27226;DHT22;14732;51.074;3.788;2023-12-14T13:24:02;10.50;99.90
27226;DHT22;14732;51.074;3.788;2023-12-14T13:26:28;10.40;99.90
27226;DHT22;14732;51.074;3.788;2023-12-14T13:28:54;10.30;99.90
27226;DHT22;14732;51.074;3.788;2023-12-14T13:31:20;10.40;99.90
27226;DHT22;14732;51.074;3.788;2023-12-14T13:33:47;10.60;99.90
27226;DHT22;14732;51.074;3.788;2023-12-14T13:36:13;10.50;99.90
27226;DHT22;14732;51.074;3.788;2023-12-14T13:38:40;10.50;99.90
27226;DHT22;14732;51.074;3.788;2023-12-14T13:41:09;10.30;99.90
27226;DHT22;14732;51.074;3.788;2023-12-14T13:43:36;10.20;99.90
27226;DHT22;14732;51.074;3.788;2023-12-14T13:46:02;10.10;99.90
27226;DHT22;14732;51.074;3.788;2023-12-14T13:48:28;10.10;99.90
27226;DHT22;14732;51.074;3.788;2023-12-14T13:50:54;10.20;99.90
27226;DHT22;14732;51.074;3.788;2023-12-14T13:53:21;10.20;99.90
27226;DHT22;14732;51.074;3.788;2023-12-14T13:55:47;10.30;99.90
27226;DHT22;14732;51.074;3.788;2023-12-14T13:58:14;10.30;99.90
27226;DHT22;14732;51.074;3.788;2023-12-14T14:00:40;10.50;99.90
27226;DHT22;14732;51.074;3.788;2023-12-14T14:03:05;10.50;99.90
27226;DHT22;14732;51.074;3.788;2023-12-14T14:05:32;10.20;99.90
27226;DHT22;14732;51.074;3.788;2023-12-14T14:07:58;10.00;99.90
27226;DHT22;14732;51.074;3.788;2023-12-14T14:10:23;9.80;99.90
27226;DHT22;14732;51.074;3.788;2023-12-14T14:12:49;9.80;99.90
27226;DHT22;14732;51.074;3.788;2023-12-14T14:15:16;9.80;99.90
27226;DHT22;14732;51.074;3.788;2023-12-14T14:17:42;10.00;99.90
27226;DHT22;14732;51.074;3.788;2023-12-14T14:20:08;10.00;99.90
27226;DHT22;14732;51.074;3.788;2023-12-14T14:22:38;9.80;99.90
27226;DHT22;14732;51.074;3.788;2023-12-14T14:25:05;9.90;99.90
27226;DHT22;14732;51.074;3.788;2023-12-14T14:27:34;10.00;99.90
27226;DHT22;14732;51.074;3.788;2023-12-14T14:30:00;9.90;99.90
27226;DHT22;14732;51.074;3.788;2023-12-14T14:32:26;9.80;99.90
27226;DHT22;14732;51.074;3.788;2023-12-14T14:34:52;9.80;99.90
27226;DHT22;14732;51.074;3.788;2023-12-14T14:37:20;9.80;99.90
27226;DHT22;14732;51.074;3.788;2023-12-14T14:39:45;9.60;99.90
27226;DHT22;14732;51.074;3.788;2023-12-14T14:42:11;9.70;99.90
27226;DHT22;14732;51.074;3.788;2023-12-14T14:44:37;9.60;99.90
27226;DHT22;14732;51.074;3.788;2023-12-14T14:47:03;9.70;99.90
27226;DHT22;14732;51.074;3.788;2023-12-14T14:49:28;9.60;99.90
27226;DHT22;14732;51.074;3.788;2023-12-14T14:51:54;9.70;99.90
27226;DHT22;14732;51.074;3.788;2023-12-14T14:54:20;9.70;99.90
27226;DHT22;14732;51.074;3.788;2023-12-14T14:56:46;9.80;99.90
27226;DHT22;14732;51.074;3.788;2023-12-14T14:59:11;9.70;99.90
27226;DHT22;14732;51.074;3.788;2023-12-14T15:01:41;9.70;99.90
27226;DHT22;14732;51.074;3.788;2023-12-14T15:04:06;9.70;99.90
27226;DHT22;14732;51.074;3.788;2023-12-14T15:06:32;9.70;99.90
27226;DHT22;14732;51.074;3.788;2023-12-14T15:08:59;9.80;99.90
27226;DHT22;14732;51.074;3.788;2023-12-14T15:11:25;9.80;99.90
27226;DHT22;14732;51.074;3.788;2023-12-14T15:13:50;10.10;99.90
27226;DHT22;14732;51.074;3.788;2023-12-14T15:16:17;10.00;99.90
27226;DHT22;14732;51.074;3.788;2023-12-14T15:18:43;10.00;99.90
27226;DHT22;14732;51.074;3.788;2023-12-14T15:21:10;10.10;99.90
27226;DHT22;14732;51.074;3.788;2023-12-14T15:23:35;10.30;99.90
27226;DHT22;14732;51.074;3.788;2023-12-14T15:26:02;10.30;99.90
27226;DHT22;14732;51.074;3.788;2023-12-14T15:28:28;10.20;99.90
27226;DHT22;14732;51.074;3.788;2023-12-14T15:30:53;10.30;99.90
27226;DHT22;14732;51.074;3.788;2023-12-14T15:33:19;10.30;99.90
27226;DHT22;14732;51.074;3.788;2023-12-14T15:35:46;10.10;99.90
27226;DHT22;14732;51.074;3.788;2023-12-14T15:38:11;10.10;99.90
27226;DHT22;14732;51.074;3.788;2023-12-14T15:40:37;10.10;99.90
27226;DHT22;14732;51.074;3.788;2023-12-14T15:43:04;10.10;99.90
27226;DHT22;14732;51.074;3.788;2023-12-14T15:45:30;10.20;99.90
27226;DHT22;14732;51.074;3.788;2023-12-14T15:48:02;10.20;99.90
27226;DHT22;14732;51.074;3.788;2023-12-14T15:50:28;10.20;99.90
27226;DHT22;14732;51.074;3.788;2023-12-14T15:52:53;10.20;99.90
27226;DHT22;14732;51.074;3.788;2023-12-14T15:55:20;10.20;99.90
27226;DHT22;14732;51.074;3.788;2023-12-14T15:57:47;10.20;99.90
27226;DHT22;14732;51.074;3.788;2023-12-14T16:00:14;10.20;99.90